Terminal Aerodrome Forecast
Issued by NWS

Home | Current Version | Previous Version | Graphics & Text | Print | Product List | Glossary On
Versions: 1 2 3 4 5 6 7 8 9 10 11 12 13 14 15 16 17 18 19 20
051
FTUS43 KBIS 261120
TAFJMS
TAF
KJMS 261120Z 2612/2712 27009KT 6SM BR BKN008
     FM261400 27011KT P6SM SCT020
     FM261600 26010G18KT P6SM SCT060
     FM270200 17004KT P6SM SCT090
     FM271100 02004KT P6SM SCT040=

USA.gov is the U.S. government's official web portal to all federal, state and local government web resources and services.